Time;durP1;ratioP1;P1;durP2;ratioP2;P2;SDS_P1;SDS_P2;PMS_P1;PMS_P2;Temp;Humidity;BMP_temperature;BMP_pressure;BME280_temperature;BME280_humidity;BME280_pressure;Samples;Min_cycle;Max_cycle;Signal;HPM_P1;HPM_P2
2021/06/21 00:01:50;;;;;;;7.97;3.92;;;;;;;26.30;50.97;100194.63;5033391;28;20123;-61
2021/06/21 00:04:15;;;;;;;7.72;5.07;;;;;;;26.32;51.28;100204.28;5033190;28;20386;-59
2021/06/21 00:06:40;;;;;;;8.13;4.80;;;;;;;26.35;51.11;100211.19;5034436;28;20041;-60
2021/06/21 00:09:06;;;;;;;7.15;5.18;;;;;;;26.37;51.21;100209.00;5037265;28;20059;-61
2021/06/21 00:11:31;;;;;;;8.18;5.68;;;;;;;26.39;51.13;100198.59;5036529;28;20032;-60
2021/06/21 00:13:57;;;;;;;9.57;6.45;;;;;;;26.35;51.39;100181.81;5046990;28;20080;-60
2021/06/21 00:16:22;;;;;;;7.03;5.22;;;;;;;26.43;51.30;100202.53;5056377;28;20492;-60
2021/06/21 00:18:48;;;;;;;6.20;4.90;;;;;;;26.47;51.09;100184.44;5056311;28;20028;-61
2021/06/21 00:21:14;;;;;;;6.10;4.95;;;;;;;26.46;51.38;100185.56;5056240;28;20061;-60
2021/06/21 00:23:40;;;;;;;6.97;5.68;;;;;;;26.47;51.45;100182.53;5056598;28;20107;-60
2021/06/21 00:26:05;;;;;;;9.07;5.47;;;;;;;26.46;51.27;100178.16;5056116;28;20052;-60
2021/06/21 00:28:31;;;;;;;9.73;6.03;;;;;;;26.45;51.19;100181.97;5056299;28;20029;-60
2021/06/21 00:30:56;;;;;;;11.45;6.57;;;;;;;26.47;51.06;100174.31;5056317;28;20056;-61
2021/06/21 00:33:22;;;;;;;8.65;6.20;;;;;;;26.50;51.29;100172.97;5056535;28;20029;-61
2021/06/21 00:35:47;;;;;;;10.18;6.82;;;;;;;26.51;51.06;100172.72;5056797;28;20031;-61
2021/06/21 00:38:12;;;;;;;7.32;5.75;;;;;;;26.53;51.23;100184.31;5056199;28;20043;-60
2021/06/21 00:40:38;;;;;;;8.02;6.70;;;;;;;26.54;51.44;100179.66;5056309;28;20466;-60
2021/06/21 00:43:05;;;;;;;9.82;5.75;;;;;;;26.56;51.32;100182.97;5056025;28;20068;-61
2021/06/21 00:45:30;;;;;;;8.55;5.45;;;;;;;26.58;51.11;100180.78;5055760;28;20032;-61
2021/06/21 00:47:56;;;;;;;8.20;5.00;;;;;;;26.54;51.27;100166.75;5055974;28;20043;-58
2021/06/21 00:50:23;;;;;;;7.75;4.78;;;;;;;26.51;51.15;100166.41;5037780;28;20025;-60
2021/06/21 00:52:53;;;;;;;6.35;4.93;;;;;;;26.52;51.53;100165.34;5050113;28;20029;-60
2021/06/21 00:55:18;;;;;;;13.90;5.63;;;;;;;26.52;51.49;100170.81;5019411;28;20025;-60
2021/06/21 00:57:44;;;;;;;7.07;5.10;;;;;;;26.51;51.16;100170.00;5034315;28;20033;-60
2021/06/21 01:00:14;;;;;;;5.15;4.65;;;;;;;26.51;51.11;100174.66;5034188;28;20025;-60
2021/06/21 01:02:40;;;;;;;9.05;4.93;;;;;;;26.52;51.48;100168.06;5034106;28;20043;-60
2021/06/21 01:05:07;;;;;;;5.00;3.85;;;;;;;26.48;51.11;100172.41;5024152;28;20017;-60
2021/06/21 01:07:33;;;;;;;4.53;3.97;;;;;;;26.40;51.06;100173.66;5022100;28;20022;-60
2021/06/21 01:09:58;;;;;;;6.88;4.53;;;;;;;26.33;51.66;100163.88;5041136;28;20794;-60
2021/06/21 01:12:44;;;;;;;5.65;4.40;;;;;;;26.33;51.63;100166.63;5034240;28;20072;-60
2021/06/21 01:15:10;;;;;;;7.22;4.38;;;;;;;26.31;51.31;100169.63;5050808;28;20103;-61
2021/06/21 01:17:51;;;;;;;5.75;4.13;;;;;;;26.28;51.52;100169.28;5046209;28;20196;-60
2021/06/21 01:20:38;;;;;;;8.07;4.00;;;;;;;26.23;51.65;100163.72;5055457;28;20381;-61
2021/06/21 01:23:31;;;;;;;6.40;4.43;;;;;;;26.18;51.83;100158.97;5055005;28;20436;-61
2021/06/21 01:25:59;;;;;;;5.95;4.55;;;;;;;26.14;51.74;100163.28;5055296;28;20055;-60
2021/06/21 01:28:40;;;;;;;6.47;4.05;;;;;;;26.13;51.67;100160.75;5037400;28;20029;-61
2021/06/21 01:31:12;;;;;;;6.07;4.63;;;;;;;26.12;51.46;100162.66;5055185;28;20470;-60
2021/06/21 01:33:39;;;;;;;4.65;3.95;;;;;;;26.10;51.83;100156.59;5054579;28;20025;-60
2021/06/21 01:36:07;;;;;;;5.40;4.38;;;;;;;26.16;51.60;100161.09;5055068;28;20044;-60
2021/06/21 01:38:37;;;;;;;8.73;4.50;;;;;;;26.21;51.89;100163.13;5054746;28;20104;-60
2021/06/21 01:41:05;;;;;;;5.18;4.13;;;;;;;26.20;51.64;100156.81;5055274;28;20070;-61
2021/06/21 01:43:34;;;;;;;5.93;4.25;;;;;;;26.26;51.46;100161.31;5053730;28;20474;-60
2021/06/21 01:46:02;;;;;;;7.13;4.15;;;;;;;26.30;51.58;100162.47;5036879;28;20021;-60
2021/06/21 01:48:28;;;;;;;6.32;4.28;;;;;;;26.34;51.12;100154.56;5036784;28;20046;-60
2021/06/21 01:50:56;;;;;;;7.93;4.80;;;;;;;26.39;51.85;100160.13;5037354;28;20037;-61
2021/06/21 01:53:23;;;;;;;6.35;4.78;;;;;;;26.44;51.67;100168.47;5054979;28;20450;-60
2021/06/21 01:55:57;;;;;;;6.65;4.07;;;;;;;26.48;51.65;100165.00;5053285;28;20436;-61
2021/06/21 01:58:23;;;;;;;5.72;5.13;;;;;;;26.54;51.08;100160.41;5036884;28;20035;-61
2021/06/21 02:00:50;;;;;;;7.85;4.68;;;;;;;26.54;51.23;100153.00;5037181;28;20052;-61
2021/06/21 02:03:17;;;;;;;5.97;5.00;;;;;;;26.60;51.35;100162.16;5053342;28;20033;-60
2021/06/21 02:05:43;;;;;;;8.27;4.70;;;;;;;26.62;51.63;100162.75;5036524;28;20465;-60
2021/06/21 02:08:12;;;;;;;5.15;4.43;;;;;;;26.62;51.41;100157.25;5019912;28;20108;-60
2021/06/21 02:10:39;;;;;;;4.90;4.40;;;;;;;26.65;51.55;100158.66;5054167;28;20091;-61
2021/06/21 02:13:05;;;;;;;6.00;4.53;;;;;;;26.63;51.64;100161.66;5036595;28;20367;-61
2021/06/21 02:15:31;;;;;;;11.18;4.75;;;;;;;26.65;51.33;100158.66;5052941;28;20029;-61
2021/06/21 02:17:57;;;;;;;7.55;4.72;;;;;;;26.65;51.79;100145.75;5054126;28;20029;-61
2021/06/21 02:20:23;;;;;;;6.57;4.20;;;;;;;26.65;51.92;100148.50;5053111;28;20025;-58
2021/06/21 02:22:48;;;;;;;7.68;4.47;;;;;;;26.63;51.74;100153.41;5054187;28;20378;-61
2021/06/21 02:25:14;;;;;;;6.50;3.95;;;;;;;26.61;52.10;100148.16;5053032;28;20496;-60
2021/06/21 02:27:40;;;;;;;6.13;4.15;;;;;;;26.59;52.08;100149.50;5036116;28;20029;-60
2021/06/21 02:30:10;;;;;;;3.88;3.00;;;;;;;26.52;51.82;100155.16;5035842;28;20039;-60
2021/06/21 02:32:36;;;;;;;3.67;2.95;;;;;;;26.46;51.73;100163.56;5053724;28;20382;-60
2021/06/21 02:35:02;;;;;;;3.90;3.40;;;;;;;26.42;51.80;100154.16;5053724;28;20033;-60
2021/06/21 02:37:27;;;;;;;3.35;3.05;;;;;;;26.40;51.83;100150.84;5035952;28;20079;-59
2021/06/21 02:39:53;;;;;;;3.80;3.33;;;;;;;26.38;52.07;100151.06;5036218;28;20417;-61
2021/06/21 02:42:18;;;;;;;3.50;3.20;;;;;;;26.36;52.01;100153.22;5035737;28;20049;-61
2021/06/21 02:44:44;;;;;;;4.93;3.50;;;;;;;26.34;52.08;100162.81;5035783;28;20033;-58
2021/06/21 02:47:09;;;;;;;4.95;3.13;;;;;;;26.30;52.15;100164.41;5053895;28;20036;-60
2021/06/21 02:49:35;;;;;;;4.10;3.50;;;;;;;26.26;52.67;100160.47;5053960;28;20060;-61
2021/06/21 02:52:35;;;;;;;6.38;4.32;;;;;;;26.18;51.98;100149.91;5053533;28;20032;-62
2021/06/21 02:55:08;;;;;;;5.30;3.40;;;;;;;26.11;52.52;100161.00;5009285;28;20045;-61
2021/06/21 02:57:41;;;;;;;5.63;3.47;;;;;;;26.07;52.75;100150.75;5052798;28;20021;-61
2021/06/21 03:00:07;;;;;;;7.90;2.95;;;;;;;25.97;52.37;100157.72;5052231;28;20071;-63
2021/06/21 03:02:34;;;;;;;2.10;1.90;;;;;;;25.84;52.42;100160.78;5053731;28;20032;-61
2021/06/21 03:04:59;;;;;;;2.58;0.88;;;;;;;25.70;53.07;100167.63;5052243;28;20032;-62
2021/06/21 03:07:25;;;;;;;2.55;1.45;;;;;;;25.62;52.87;100168.00;5052629;28;20461;-62
2021/06/21 03:09:51;;;;;;;3.60;2.20;;;;;;;25.55;52.97;100169.22;5052394;28;20029;-62
2021/06/21 03:12:26;;;;;;;2.17;1.98;;;;;;;25.42;53.55;100165.66;5035834;28;20025;-62
2021/06/21 03:14:51;;;;;;;1.88;1.40;;;;;;;25.42;53.59;100175.78;5048484;28;20068;-62
2021/06/21 03:17:20;;;;;;;3.10;2.10;;;;;;;25.37;53.53;100170.19;5032413;28;20038;-65
2021/06/21 03:19:46;;;;;;;2.25;1.80;;;;;;;25.31;53.09;100165.66;5015618;28;20146;-63
2021/06/21 03:22:12;;;;;;;1.20;1.10;;;;;;;25.26;53.65;100168.31;5015541;28;20056;-61
2021/06/21 03:24:37;;;;;;;0.90;0.90;;;;;;;25.19;53.59;100170.31;5032411;28;20030;-61
2021/06/21 03:27:04;;;;;;;0.52;0.52;;;;;;;25.05;53.95;100156.03;5032437;28;20017;-61
2021/06/21 03:29:30;;;;;;;1.00;0.73;;;;;;;24.95;53.71;100158.56;5033294;28;20109;-61
2021/06/21 03:31:56;;;;;;;0.88;0.88;;;;;;;24.85;54.05;100153.66;5033253;28;20435;-60
2021/06/21 03:34:24;;;;;;;2.00;1.13;;;;;;;24.78;53.65;100147.47;5033474;28;20474;-61
2021/06/21 03:36:49;;;;;;;0.95;0.95;;;;;;;24.74;53.95;100146.25;5033677;28;20025;-61
2021/06/21 03:39:15;;;;;;;1.55;0.77;;;;;;;24.72;53.68;100142.94;5033359;28;20428;-60
2021/06/21 03:41:41;;;;;;;2.20;1.70;;;;;;;24.68;54.01;100141.72;5035227;28;20429;-61
2021/06/21 03:44:06;;;;;;;1.20;1.10;;;;;;;24.65;54.39;100136.72;5036925;28;20385;-61
2021/06/21 03:46:32;;;;;;;1.33;1.20;;;;;;;24.61;53.78;100135.53;5037123;28;20034;-62
2021/06/21 03:48:58;;;;;;;1.17;1.08;;;;;;;24.58;54.38;100127.78;5037153;28;20029;-61
2021/06/21 03:51:24;;;;;;;0.68;0.68;;;;;;;24.58;53.84;100130.53;5036833;28;20026;-61
2021/06/21 03:53:50;;;;;;;1.50;1.10;;;;;;;24.54;53.57;100134.00;5036981;28;20026;-60
2021/06/21 03:56:16;;;;;;;1.67;1.00;;;;;;;24.52;54.48;100136.97;5037261;28;20022;-60
2021/06/21 03:58:41;;;;;;;1.35;1.20;;;;;;;24.59;53.88;100137.69;5035746;28;20033;-61
2021/06/21 04:01:06;;;;;;;0.80;0.80;;;;;;;24.60;53.46;100136.59;5035615;28;20029;-60
2021/06/21 04:03:32;;;;;;;1.25;1.15;;;;;;;24.62;53.45;100141.84;5036713;28;20087;-61
2021/06/21 04:05:57;;;;;;;1.33;1.23;;;;;;;24.60;54.25;100150.28;5036459;28;20033;-60
2021/06/21 04:08:23;;;;;;;1.20;1.10;;;;;;;24.66;53.73;100152.09;5036962;28;20481;-60
2021/06/21 04:10:49;;;;;;;0.80;0.77;;;;;;;24.67;53.52;100148.28;5036967;28;20056;-61
2021/06/21 04:13:16;;;;;;;1.20;1.00;;;;;;;24.68;53.89;100147.19;5035107;28;20371;-61
2021/06/21 04:15:43;;;;;;;1.27;0.95;;;;;;;24.65;53.78;100142.19;5055325;28;20107;-60
2021/06/21 04:18:11;;;;;;;0.80;0.80;;;;;;;24.75;53.65;100164.38;5056494;28;20017;-60
2021/06/21 04:20:37;;;;;;;0.77;0.77;;;;;;;24.77;53.56;100150.41;5039153;28;20029;-60
2021/06/21 04:23:04;;;;;;;1.52;0.80;;;;;;;24.80;53.63;100155.47;5056468;28;20040;-61
2021/06/21 04:25:30;;;;;;;0.63;0.63;;;;;;;24.79;53.06;100143.66;5056728;28;20051;-60
2021/06/21 04:27:55;;;;;;;0.60;0.60;;;;;;;24.85;53.46;100159.16;5056399;28;20470;-61
2021/06/21 04:30:22;;;;;;;1.08;0.60;;;;;;;24.85;52.88;100164.63;5056045;28;20033;-61
2021/06/21 04:32:48;;;;;;;0.57;0.57;;;;;;;24.84;52.96;100162.97;5056356;28;20120;-61
2021/06/21 04:35:16;;;;;;;0.55;0.55;;;;;;;24.81;53.01;100163.47;5056325;28;20434;-61
2021/06/21 04:37:41;;;;;;;0.50;0.50;;;;;;;24.80;53.01;100161.78;5055013;28;20024;-61
2021/06/21 04:40:12;;;;;;;0.93;0.60;;;;;;;24.81;53.06;100157.97;5054704;28;20525;-60
2021/06/21 04:42:37;;;;;;;1.02;0.90;;;;;;;24.80;53.07;100160.94;5056250;28;20037;-60
2021/06/21 04:45:04;;;;;;;0.50;0.50;;;;;;;24.80;52.73;100156.28;5056000;28;20052;-61
2021/06/21 04:47:29;;;;;;;0.50;0.43;;;;;;;24.78;52.66;100158.41;5055576;28;20047;-60
2021/06/21 04:49:56;;;;;;;0.60;0.47;;;;;;;24.74;52.78;100162.69;5055758;28;20029;-60
2021/06/21 04:52:28;;;;;;;0.30;0.30;;;;;;;24.74;52.20;100161.84;5055577;28;20028;-60
2021/06/21 04:55:00;;;;;;;0.68;0.30;;;;;;;24.71;52.04;100162.31;5055872;28;20029;-60
2021/06/21 04:57:26;;;;;;;0.40;0.40;;;;;;;24.71;52.28;100162.31;5038788;28;20029;-60
2021/06/21 04:59:51;;;;;;;0.25;0.25;;;;;;;24.68;52.55;100166.38;5054708;28;20112;-60
2021/06/21 05:02:17;;;;;;;0.40;0.30;;;;;;;24.63;52.35;100171.75;5056228;28;20028;-60
2021/06/21 05:04:42;;;;;;;0.52;0.40;;;;;;;24.59;52.08;100176.03;5055462;28;20032;-61
2021/06/21 05:07:08;;;;;;;0.40;0.40;;;;;;;24.54;52.71;100167.66;5055944;28;20087;-61
2021/06/21 05:09:34;;;;;;;0.65;0.50;;;;;;;24.58;51.75;100174.34;5055947;28;20044;-60
2021/06/21 05:12:01;;;;;;;0.80;0.30;;;;;;;24.51;51.92;100173.63;5055436;28;20025;-61
2021/06/21 05:14:26;;;;;;;0.45;0.45;;;;;;;24.47;52.62;100172.44;5050469;28;20049;-60
2021/06/21 05:16:51;;;;;;;0.38;0.38;;;;;;;24.42;51.76;100169.56;5035602;28;20087;-60
2021/06/21 05:19:17;;;;;;;0.50;0.50;;;;;;;24.44;52.52;100175.66;5035855;28;20065;-61
2021/06/21 05:21:42;;;;;;;0.40;0.40;;;;;;;24.43;52.24;100187.66;5035494;28;20030;-61
2021/06/21 05:24:08;;;;;;;1.38;0.50;;;;;;;24.41;52.24;100184.31;5035480;28;20034;-61
2021/06/21 05:26:33;;;;;;;0.85;0.85;;;;;;;24.41;51.57;100189.81;5035421;28;20025;-61
2021/06/21 05:28:58;;;;;;;0.80;0.75;;;;;;;24.33;52.18;100190.97;5035401;28;20049;-60
2021/06/21 05:31:24;;;;;;;0.43;0.43;;;;;;;24.34;52.09;100200.03;5035382;28;20041;-60
2021/06/21 05:33:49;;;;;;;0.30;0.30;;;;;;;24.33;52.34;100212.03;5035328;28;20513;-59
2021/06/21 05:36:14;;;;;;;4.50;0.80;;;;;;;24.31;52.55;100211.44;5035737;28;20108;-60
2021/06/21 05:38:40;;;;;;;0.50;0.45;;;;;;;24.25;51.65;100224.19;5034309;28;20037;-60
2021/06/21 05:41:05;;;;;;;0.60;0.40;;;;;;;24.18;52.41;100228.06;5033992;28;20036;-60
2021/06/21 05:43:31;;;;;;;0.32;0.32;;;;;;;24.12;52.67;100229.00;5034806;28;20389;-61
2021/06/21 05:45:56;;;;;;;0.65;0.55;;;;;;;24.05;52.04;100225.47;5034842;28;20466;-60
2021/06/21 05:48:22;;;;;;;1.83;0.30;;;;;;;23.97;51.94;100225.81;5033516;28;20041;-60
2021/06/21 05:50:49;;;;;;;0.35;0.28;;;;;;;23.92;52.88;100228.41;5035014;28;20026;-61
2021/06/21 05:53:14;;;;;;;0.40;0.40;;;;;;;23.85;52.13;100225.75;5034942;28;20022;-60
2021/06/21 05:55:40;;;;;;;0.80;0.40;;;;;;;23.84;52.04;100221.34;5034600;28;20029;-63
2021/06/21 05:58:05;;;;;;;0.45;0.32;;;;;;;23.79;52.45;100215.72;5034858;28;20026;-62
2021/06/21 06:00:31;;;;;;;0.65;0.40;;;;;;;23.81;52.88;100216.34;5017429;28;20025;-62
2021/06/21 06:02:56;;;;;;;0.85;0.40;;;;;;;23.77;52.90;100215.97;5034485;28;20433;-60
2021/06/21 06:05:22;;;;;;;0.73;0.47;;;;;;;23.75;53.18;100229.03;5033517;28;20091;-62
2021/06/21 06:07:48;;;;;;;0.50;0.50;;;;;;;23.71;52.14;100236.03;5034929;28;20477;-60
2021/06/21 06:10:14;;;;;;;0.60;0.47;;;;;;;23.68;52.35;100239.22;5034583;28;20033;-61
2021/06/21 06:12:40;;;;;;;0.60;0.60;;;;;;;23.63;52.51;100236.31;5034827;28;20068;-60
2021/06/21 06:15:07;;;;;;;0.88;0.50;;;;;;;23.58;52.41;100259.97;5047333;28;20080;-61
2021/06/21 06:17:32;;;;;;;0.75;0.60;;;;;;;23.54;52.54;100262.31;5054694;28;20028;-60
2021/06/21 06:19:58;;;;;;;0.80;0.50;;;;;;;23.47;52.73;100272.50;5053201;28;20028;-60
2021/06/21 06:22:24;;;;;;;0.52;0.52;;;;;;;23.47;53.48;100275.22;5036018;28;20477;-60
2021/06/21 06:24:49;;;;;;;0.40;0.40;;;;;;;23.47;52.74;100279.84;5054588;28;20037;-60
2021/06/21 06:27:14;;;;;;;0.35;0.30;;;;;;;23.50;52.58;100285.72;5053112;28;20448;-60
2021/06/21 06:29:40;;;;;;;0.43;0.43;;;;;;;23.51;52.70;100281.91;5053026;28;20032;-60
2021/06/21 06:32:06;;;;;;;0.40;0.40;;;;;;;23.54;52.51;100270.50;5053820;28;20025;-61
2021/06/21 06:34:31;;;;;;;0.22;0.22;;;;;;;23.56;52.93;100270.28;5036206;28;20064;-61
2021/06/21 06:36:57;;;;;;;0.75;0.50;;;;;;;23.59;52.32;100276.13;5053654;28;20028;-60
2021/06/21 06:39:23;;;;;;;0.68;0.40;;;;;;;23.65;52.61;100282.59;5054006;28;20017;-59
2021/06/21 06:41:48;;;;;;;0.30;0.30;;;;;;;23.71;52.88;100287.16;5054296;28;20033;-59
2021/06/21 06:44:14;;;;;;;2.88;0.73;;;;;;;23.74;52.27;100283.97;5053081;28;20036;-60
2021/06/21 06:46:40;;;;;;;0.98;0.40;;;;;;;23.82;52.58;100293.75;5053672;28;20028;-60
2021/06/21 06:49:05;;;;;;;1.65;0.60;;;;;;;23.83;52.51;100289.97;5053589;28;20470;-61
2021/06/21 06:51:50;;;;;;;1.65;0.50;;;;;;;23.93;51.74;100295.72;5053826;28;20036;-60
2021/06/21 06:57:00;;;;;;;0.57;0.57;;;;;;;23.97;52.30;100308.72;5054010;28;20064;-59
2021/06/21 06:59:31;;;;;;;1.63;0.60;;;;;;;24.00;51.97;100301.97;5052637;28;20048;-60
2021/06/21 07:01:58;;;;;;;1.50;0.93;;;;;;;24.06;51.30;100303.78;5052082;28;20021;-60
2021/06/21 07:04:24;;;;;;;0.90;0.63;;;;;;;24.08;52.16;100307.13;5053241;28;20107;-60
2021/06/21 07:06:49;;;;;;;0.63;0.63;;;;;;;24.09;51.36;100300.59;5053803;28;20060;-61
2021/06/21 07:09:15;;;;;;;0.60;0.60;;;;;;;24.15;52.00;100316.09;5053280;28;20079;-60
2021/06/21 07:11:40;;;;;;;1.15;0.75;;;;;;;24.20;51.83;100319.81;5052260;28;20047;-59
2021/06/21 07:14:06;;;;;;;0.85;0.57;;;;;;;24.23;51.18;100324.84;5053217;28;20107;-60
2021/06/21 07:16:33;;;;;;;1.15;0.80;;;;;;;24.28;51.46;100338.69;5054189;28;20024;-59
2021/06/21 07:18:58;;;;;;;1.15;0.65;;;;;;;24.30;50.92;100341.19;5039463;28;20112;-60
2021/06/21 07:21:24;;;;;;;2.40;0.60;;;;;;;24.31;50.96;100348.34;5054086;28;20059;-61
2021/06/21 07:23:49;;;;;;;2.55;0.75;;;;;;;24.31;51.35;100351.09;5037625;28;20087;-62
2021/06/21 07:26:14;;;;;;;1.05;0.90;;;;;;;24.31;51.48;100362.03;5037623;28;20053;-61
2021/06/21 07:28:40;;;;;;;0.73;0.52;;;;;;;24.32;51.60;100366.44;5037646;28;20581;-62
2021/06/21 07:31:05;;;;;;;2.45;0.90;;;;;;;24.32;50.81;100361.78;5019970;28;20052;-62
2021/06/21 07:33:31;;;;;;;1.38;0.50;;;;;;;24.38;51.05;100373.72;5019692;28;20104;-61
2021/06/21 07:35:58;;;;;;;1.95;0.50;;;;;;;24.37;51.16;100377.56;5037266;28;20032;-62
2021/06/21 07:38:23;;;;;;;3.10;0.63;;;;;;;24.37;50.72;100380.28;5037536;28;20025;-62
2021/06/21 07:40:49;;;;;;;2.08;0.70;;;;;;;24.39;50.99;100389.09;5037145;28;20048;-62
2021/06/21 07:43:14;;;;;;;0.73;0.70;;;;;;;24.43;51.56;100393.03;5037223;28;20104;-61
2021/06/21 07:45:41;;;;;;;0.70;0.70;;;;;;;24.39;51.15;100389.09;5037062;28;20036;-61
2021/06/21 07:48:07;;;;;;;0.90;0.75;;;;;;;24.33;51.17;100395.50;5037203;28;20060;-60
2021/06/21 07:50:32;;;;;;;0.95;0.63;;;;;;;24.28;50.99;100406.31;5019158;28;20486;-60
2021/06/21 07:52:58;;;;;;;2.65;0.45;;;;;;;24.27;51.18;100413.69;5019195;28;20028;-60
2021/06/21 07:55:27;;;;;;;0.90;0.50;;;;;;;24.25;50.81;100404.88;5037123;28;20032;-60
2021/06/21 07:57:52;;;;;;;1.25;0.85;;;;;;;24.20;51.97;100403.88;5035959;28;20029;-60
2021/06/21 08:00:21;;;;;;;0.80;0.65;;;;;;;24.19;51.77;100396.72;5037206;28;20026;-61
2021/06/21 08:02:47;;;;;;;1.27;1.00;;;;;;;24.14;51.95;100385.63;5018982;28;20025;-61
2021/06/21 08:05:13;;;;;;;0.60;0.60;;;;;;;24.15;51.44;100398.22;5019056;28;20043;-60
2021/06/21 08:07:38;;;;;;;1.02;0.95;;;;;;;24.10;51.10;100414.50;5036571;28;20026;-61
2021/06/21 08:10:04;;;;;;;1.25;1.00;;;;;;;23.97;51.18;100428.31;5037120;28;20095;-61
2021/06/21 08:12:29;;;;;;;2.97;1.40;;;;;;;23.89;52.13;100431.34;5036747;28;20025;-61
2021/06/21 08:14:55;;;;;;;3.28;1.90;;;;;;;23.82;51.71;100430.53;5046029;28;20136;-61
2021/06/21 08:17:20;;;;;;;3.40;1.90;;;;;;;23.84;52.29;100434.75;5056339;28;20055;-60
2021/06/21 08:19:46;;;;;;;3.15;2.17;;;;;;;23.87;52.24;100436.19;5056881;28;20107;-61
2021/06/21 08:22:11;;;;;;;2.38;1.83;;;;;;;23.88;51.20;100446.91;5056487;28;20025;-60
2021/06/21 08:24:40;;;;;;;2.63;2.13;;;;;;;23.86;51.72;100437.25;5055286;28;20037;-61
2021/06/21 08:27:06;;;;;;;2.55;1.80;;;;;;;23.97;51.36;100450.19;5056010;28;20060;-60
2021/06/21 08:29:31;;;;;;;1.40;1.30;;;;;;;24.00;52.03;100452.47;5056251;28;20083;-60
2021/06/21 08:31:57;;;;;;;2.08;1.75;;;;;;;24.08;51.45;100457.66;5056356;28;20104;-61
2021/06/21 08:34:22;;;;;;;2.28;2.00;;;;;;;24.17;51.38;100459.06;5056175;28;20436;-60
2021/06/21 08:36:47;;;;;;;2.22;2.03;;;;;;;24.20;52.03;100451.22;5056207;28;20465;-60
2021/06/21 08:39:13;;;;;;;2.53;1.92;;;;;;;24.33;51.94;100444.78;5056364;28;20040;-59
2021/06/21 08:41:38;;;;;;;2.35;1.50;;;;;;;24.44;51.80;100430.31;5056218;28;20025;-60
2021/06/21 08:44:04;;;;;;;2.17;1.60;;;;;;;24.59;50.84;100422.56;5038024;28;20039;-61
2021/06/21 08:46:29;;;;;;;1.88;1.50;;;;;;;24.76;51.11;100406.31;5056394;28;20088;-60
2021/06/21 08:48:57;;;;;;;1.20;1.02;;;;;;;24.92;51.10;100370.06;5056046;28;20025;-61
2021/06/21 08:51:23;;;;;;;3.58;1.05;;;;;;;25.09;50.23;100357.38;5055960;28;20381;-61
2021/06/21 08:53:48;;;;;;;2.67;1.67;;;;;;;25.28;50.27;100344.38;5055689;28;20021;-60
2021/06/21 08:56:14;;;;;;;1.17;1.10;;;;;;;25.58;50.02;100371.75;5055661;28;20482;-60
2021/06/21 08:58:39;;;;;;;1.50;1.40;;;;;;;25.84;50.35;100394.06;5055921;28;20477;-61
2021/06/21 09:01:05;;;;;;;2.33;1.30;;;;;;;25.92;49.82;100396.44;5055523;28;20478;-60
2021/06/21 09:03:33;;;;;;;1.52;1.42;;;;;;;26.00;50.29;100408.97;5056119;28;20033;-60
2021/06/21 09:05:58;;;;;;;1.27;1.20;;;;;;;26.28;49.78;100405.50;5054450;28;20032;-60
2021/06/21 09:08:23;;;;;;;1.08;0.98;;;;;;;26.53;49.42;100376.63;5037569;28;20035;-61
2021/06/21 09:10:50;;;;;;;2.70;0.63;;;;;;;27.00;48.35;100385.53;5037939;28;20572;-60
2021/06/21 09:13:17;;;;;;;0.55;0.55;;;;;;;27.45;48.15;100384.69;5055573;28;20044;-58
2021/06/21 09:15:48;;;;;;;0.43;0.43;;;;;;;27.40;48.30;100406.59;5055260;28;20408;-58
2021/06/21 09:18:43;;;;;;;0.30;0.30;;;;;;;27.33;48.74;100425.19;5055524;28;20037;-58
2021/06/21 09:21:29;;;;;;;0.40;0.38;;;;;;;27.32;48.86;100424.34;5020962;28;20045;-58
2021/06/21 09:23:57;;;;;;;0.50;0.50;;;;;;;27.32;47.94;100434.50;5054304;28;20104;-58
2021/06/21 09:26:26;;;;;;;0.47;0.40;;;;;;;27.43;47.94;100430.88;5055114;28;20354;-58
2021/06/21 09:28:52;;;;;;;0.38;0.38;;;;;;;27.49;47.20;100449.16;5055765;28;20057;-58
2021/06/21 09:31:19;;;;;;;0.47;0.45;;;;;;;27.49;47.52;100451.91;5055058;28;20056;-58
2021/06/21 09:33:44;;;;;;;0.35;0.28;;;;;;;27.42;47.48;100467.72;5055289;28;20017;-58
2021/06/21 09:36:23;;;;;;;0.20;0.20;;;;;;;27.30;47.81;100483.47;5037433;28;20535;-61
2021/06/21 09:39:15;;;;;;;0.20;0.20;;;;;;;27.39;47.53;100487.44;5054024;28;20029;-61
2021/06/21 09:41:41;;;;;;;0.50;0.40;;;;;;;27.39;47.94;100499.31;5024388;28;20504;-60
2021/06/21 09:44:06;;;;;;;1.08;0.30;;;;;;;27.32;47.11;100508.78;5055031;28;20032;-60
2021/06/21 09:46:32;;;;;;;0.20;0.20;;;;;;;27.26;47.55;100507.03;5054692;28;20025;-60
2021/06/21 09:48:57;;;;;;;0.40;0.40;;;;;;;27.21;47.24;100516.03;5053640;28;20104;-59
2021/06/21 09:51:27;;;;;;;0.40;0.30;;;;;;;27.19;46.97;100524.50;5054894;28;20431;-60
2021/06/21 09:54:08;;;;;;;0.38;0.22;;;;;;;27.19;47.15;100530.00;5054554;28;20024;-60
2021/06/21 09:56:46;;;;;;;0.30;0.20;;;;;;;27.16;47.48;100525.00;5055276;28;20032;-60
2021/06/21 09:59:17;;;;;;;0.30;0.30;;;;;;;27.09;46.84;100535.31;5036769;28;20029;-61
2021/06/21 10:01:43;;;;;;;0.30;0.30;;;;;;;27.07;46.72;100536.66;5054584;28;20036;-60
2021/06/21 10:04:22;;;;;;;0.30;0.30;;;;;;;27.11;46.69;100548.81;5054666;28;20025;-60
2021/06/21 10:06:48;;;;;;;0.40;0.40;;;;;;;27.07;47.18;100548.50;5037638;28;20032;-60
2021/06/21 10:09:13;;;;;;;0.40;0.38;;;;;;;27.08;46.76;100550.13;5033523;28;20033;-60
2021/06/21 10:11:45;;;;;;;0.40;0.40;;;;;;;27.04;47.15;100554.47;5034627;28;20116;-61
2021/06/21 10:14:12;;;;;;;0.30;0.30;;;;;;;26.94;46.91;100559.75;5035668;28;20114;-61
2021/06/21 10:16:38;;;;;;;1.48;0.40;;;;;;;26.88;46.93;100566.25;5053221;28;20036;-61
2021/06/21 10:19:04;;;;;;;0.43;0.32;;;;;;;26.83;47.25;100571.59;5054803;28;20017;-61
2021/06/21 10:21:30;;;;;;;0.40;0.40;;;;;;;26.78;47.28;100585.25;5054365;28;20060;-60
2021/06/21 10:23:56;;;;;;;0.40;0.40;;;;;;;26.67;47.17;100586.06;5054288;28;20025;-60
2021/06/21 10:26:22;;;;;;;0.35;0.30;;;;;;;26.55;47.26;100594.31;5054655;28;20086;-60
2021/06/21 10:28:49;;;;;;;0.88;0.57;;;;;;;26.47;47.34;100599.31;5053013;28;20021;-60
2021/06/21 10:31:15;;;;;;;0.50;0.50;;;;;;;26.38;47.30;100609.00;5054459;28;20052;-60
2021/06/21 10:33:41;;;;;;;0.80;0.50;;;;;;;26.30;46.96;100601.13;5052710;28;20040;-60
2021/06/21 10:36:07;;;;;;;1.08;0.43;;;;;;;26.23;47.53;100614.13;5054402;28;20462;-60
2021/06/21 10:38:33;;;;;;;0.80;0.80;;;;;;;26.19;47.39;100610.16;5019893;28;20039;-60
2021/06/21 10:41:02;;;;;;;1.45;1.38;;;;;;;26.18;47.44;100608.50;5053980;28;20029;-60
2021/06/21 10:43:47;;;;;;;3.03;1.73;;;;;;;26.18;47.12;100614.00;5053424;28;20535;-60
2021/06/21 10:46:19;;;;;;;1.90;1.80;;;;;;;26.23;46.86;100622.34;5053892;28;20432;-60
2021/06/21 10:48:59;;;;;;;1.70;1.60;;;;;;;26.25;46.90;100621.03;5054027;28;20028;-60
2021/06/21 10:51:42;;;;;;;1.50;1.40;;;;;;;26.28;47.39;100637.06;5035564;28;20083;-60
2021/06/21 10:54:21;;;;;;;1.50;1.40;;;;;;;26.35;47.41;100631.47;5053728;28;20027;-60
2021/06/21 10:56:53;;;;;;;1.40;1.30;;;;;;;26.47;47.17;100644.13;5054058;28;20386;-60
2021/06/21 10:59:20;;;;;;;1.27;1.17;;;;;;;26.46;46.94;100638.88;5049039;28;20429;-60
2021/06/21 11:01:48;;;;;;;1.48;1.25;;;;;;;26.40;46.92;100650.81;5033412;28;20063;-61
2021/06/21 11:04:32;;;;;;;1.38;1.20;;;;;;;26.40;46.97;100654.41;5033788;28;20018;-60
2021/06/21 11:07:11;;;;;;;1.27;1.25;;;;;;;26.44;46.87;100663.81;5050913;28;20029;-60
2021/06/21 11:09:45;;;;;;;1.50;1.40;;;;;;;26.45;47.07;100671.00;5053438;28;20037;-61
2021/06/21 11:12:23;;;;;;;1.30;1.20;;;;;;;26.52;46.89;100679.97;5053668;28;20028;-61
2021/06/21 11:15:10;;;;;;;1.50;1.40;;;;;;;26.57;47.16;100684.78;5051165;28;20045;-59
2021/06/21 11:17:42;;;;;;;1.55;1.45;;;;;;;26.55;46.60;100692.38;5047437;28;20422;-60
2021/06/21 11:20:32;;;;;;;1.40;1.30;;;;;;;26.50;46.74;100695.00;5033405;28;20381;-60
2021/06/21 11:23:02;;;;;;;1.38;1.33;;;;;;;26.44;46.82;100705.03;5033789;28;20025;-61
2021/06/21 11:25:32;;;;;;;1.33;1.23;;;;;;;26.45;47.02;100703.97;5033382;28;20080;-60
2021/06/21 11:27:59;;;;;;;1.50;1.40;;;;;;;26.48;46.63;100702.66;5033986;28;20108;-61
2021/06/21 11:30:37;;;;;;;1.65;1.55;;;;;;;26.54;46.27;100704.47;5032427;28;20037;-60